Time;durP1;ratioP1;P1;durP2;ratioP2;P2;SDS_P1;SDS_P2;PMS_P1;PMS_P2;Temp;Humidity;BMP_temperature;BMP_pressure;BME280_temperature;BME280_humidity;BME280_pressure;Samples;Min_cycle;Max_cycle;Signal;HPM_P1;HPM_P2
2022/06/08 00:04:13;;;;;;;10.13;3.58;;;9.70;99.90;;;;;;5048764;28;20044;-91
2022/06/08 00:06:55;;;;;;;;;;;;;;;;;;;;;
2022/06/08 00:10:08;;;;;;;14.05;4.45;;;9.50;99.90;;;;;;5048955;28;20446;-91
2022/06/08 00:13:06;;;;;;;9.82;3.80;;;9.50;99.90;;;;;;4997463;28;20071;-91
2022/06/08 00:15:54;;;;;;;14.40;4.75;;;9.30;99.90;;;;;;5031672;28;20045;-91
2022/06/08 00:21:26;;;;;;;12.02;4.40;;;9.50;99.90;;;;;;5006633;28;20081;-90
2022/06/08 00:37:19;;;;;;;4.78;3.33;;;9.60;99.90;;;;;;5001584;28;20054;-92
2022/06/08 00:39:50;;;;;;;7.00;3.03;;;9.40;99.90;;;;;;4992975;28;20068;-92
2022/06/08 00:43:17;;;;;;;10.30;2.70;;;9.30;99.90;;;;;;5012226;28;20429;-91
2022/06/08 00:46:15;;;;;;;8.48;4.32;;;9.20;99.90;;;;;;5007613;28;20100;-91
2022/06/08 00:49:16;;;;;;;4.70;3.08;;;9.20;99.90;;;;;;4995354;28;20054;-90
2022/06/08 00:51:46;;;;;;;21.48;3.80;;;9.30;99.90;;;;;;4992377;28;20058;-91
2022/06/08 00:54:37;;;;;;;5.85;2.72;;;9.20;99.90;;;;;;4970566;28;20548;-91
2022/06/08 00:57:58;;;;;;;9.25;3.72;;;8.90;99.90;;;;;;4955877;28;20062;-91
2022/06/08 01:04:46;;;;;;;11.68;4.90;;;9.20;99.90;;;;;;4914686;28;20054;-91
2022/06/08 01:10:14;;;;;;;10.80;4.93;;;9.20;99.90;;;;;;5090699;28;20067;-91
2022/06/08 01:12:46;;;;;;;7.30;4.00;;;9.20;99.90;;;;;;5057582;28;20089;-90
2022/06/08 01:15:39;;;;;;;;;;;;;;;;;;;;;
2022/06/08 01:18:31;;;;;;;7.72;3.38;;;9.30;99.90;;;;;;5075061;28;20384;-90
2022/06/08 01:21:31;;;;;;;10.77;2.95;;;8.80;99.90;;;;;;5052019;28;20135;-90
2022/06/08 01:28:19;;;;;;;13.45;6.13;;;9.10;99.90;;;;;;5033054;28;20066;-90
2022/06/08 01:31:20;;;;;;;;;;;;;;;;;;;;;
2022/06/08 01:34:30;;;;;;;16.27;5.20;;;9.20;99.90;;;;;;5073332;28;20051;-90
2022/06/08 01:41:00;;;;;;;9.88;5.53;;;9.30;99.90;;;;;;5043022;28;20051;-91
2022/06/08 01:43:58;;;;;;;;;;;;;;;;;;;;;
2022/06/08 01:47:11;;;;;;;15.63;6.53;;;9.40;99.90;;;;;;5074575;28;20048;-90
2022/06/08 01:50:02;;;;;;;14.30;6.82;;;9.40;99.90;;;;;;5055649;28;20048;-91
2022/06/08 01:52:58;;;;;;;11.23;5.43;;;9.50;99.90;;;;;;5057491;28;20056;-91
2022/06/08 01:55:47;;;;;;;13.60;6.82;;;9.60;99.90;;;;;;5043591;28;20071;-91
2022/06/08 01:59:01;;;;;;;12.50;6.55;;;9.50;99.90;;;;;;5020679;28;20139;-91
2022/06/08 02:02:08;;;;;;;14.80;6.68;;;9.50;99.90;;;;;;5034314;28;20135;-90
2022/06/08 02:05:35;;;;;;;10.93;6.50;;;9.50;99.90;;;;;;5036095;28;20048;-90
2022/06/08 02:08:39;;;;;;;16.10;6.07;;;9.50;99.90;;;;;;5026720;28;20503;-90
2022/06/08 02:11:58;;;;;;;10.43;5.68;;;9.50;99.90;;;;;;5036687;28;20492;-90
2022/06/08 02:15:06;;;;;;;10.35;4.60;;;9.40;99.90;;;;;;5051847;28;20048;-90
2022/06/08 02:17:50;;;;;;;10.88;4.57;;;9.30;99.90;;;;;;5036285;28;20194;-90
2022/06/08 02:20:54;;;;;;;6.45;4.05;;;9.30;99.90;;;;;;5034710;28;20377;-91
2022/06/08 02:24:10;;;;;;;8.68;4.68;;;9.60;99.90;;;;;;5036544;28;20083;-90
2022/06/08 02:27:18;;;;;;;9.13;5.38;;;9.20;99.90;;;;;;5020339;28;20056;-91
2022/06/08 02:30:11;;;;;;;7.68;4.57;;;9.20;99.90;;;;;;5026694;28;20512;-91
2022/06/08 02:36:41;;;;;;;10.00;4.78;;;9.10;99.90;;;;;;5069602;28;20056;-91
2022/06/08 02:39:49;;;;;;;9.43;3.97;;;9.00;99.90;;;;;;5075457;28;20566;-91
2022/06/08 02:42:38;;;;;;;6.35;3.60;;;9.00;99.90;;;;;;5056353;28;20044;-91
2022/06/08 02:45:46;;;;;;;8.73;4.03;;;9.00;99.90;;;;;;5056147;28;20131;-90
2022/06/08 02:48:16;;;;;;;12.60;5.13;;;8.90;99.90;;;;;;5056326;28;20044;-91
2022/06/08 02:51:04;;;;;;;12.68;4.68;;;8.90;99.90;;;;;;5054914;28;20056;-91
2022/06/08 02:54:32;;;;;;;11.80;5.80;;;8.80;99.90;;;;;;5059038;28;20048;-90
2022/06/08 02:57:47;;;;;;;12.63;5.97;;;8.90;99.90;;;;;;5055923;28;20044;-91
2022/06/08 03:00:39;;;;;;;16.48;6.18;;;8.70;99.90;;;;;;5055182;28;20051;-91
2022/06/08 03:03:31;;;;;;;18.05;8.20;;;9.30;99.90;;;;;;5056544;28;20389;-90
2022/06/08 03:06:23;;;;;;;15.52;7.07;;;8.90;99.90;;;;;;5051008;28;20131;-90
2022/06/08 03:09:00;;;;;;;18.10;7.90;;;9.10;99.90;;;;;;5055763;28;20130;-91
2022/06/08 03:12:17;;;;;;;12.50;7.35;;;9.20;99.90;;;;;;5055382;28;20483;-91
2022/06/08 03:14:54;;;;;;;;;;;;;;;;;;;;;
2022/06/08 03:18:05;;;;;;;15.60;8.88;;;9.30;99.90;;;;;;5070620;28;20106;-90
2022/06/08 03:20:49;;;;;;;18.85;8.68;;;9.30;99.90;;;;;;5058755;28;20129;-90
2022/06/08 03:24:02;;;;;;;17.00;8.65;;;9.30;99.90;;;;;;5055901;28;20040;-90
2022/06/08 03:26:52;;;;;;;22.00;9.48;;;9.40;99.90;;;;;;5043480;28;20165;-91
2022/06/08 03:29:26;;;;;;;16.75;9.38;;;9.50;99.90;;;;;;5055741;28;20470;-91
2022/06/08 03:32:01;;;;;;;17.23;8.63;;;9.50;99.90;;;;;;5056187;28;20081;-91
2022/06/08 03:34:47;;;;;;;20.33;9.68;;;9.50;99.90;;;;;;5054838;28;20063;-90
2022/06/08 03:37:44;;;;;;;17.40;9.88;;;9.40;99.90;;;;;;5056009;28;20063;-91
2022/06/08 03:41:06;;;;;;;18.77;9.43;;;9.60;99.90;;;;;;5055206;28;20139;-90
2022/06/08 03:43:47;;;;;;;21.83;10.57;;;9.60;99.90;;;;;;5046947;28;20484;-90
2022/06/08 03:46:39;;;;;;;22.27;10.73;;;9.60;99.90;;;;;;5054766;28;20044;-90
2022/06/08 03:52:56;;;;;;;21.20;9.95;;;10.30;99.90;;;;;;5007937;28;20040;-91
2022/06/08 03:55:57;;;;;;;17.77;10.60;;;9.70;99.90;;;;;;5051479;28;20053;-90
2022/06/08 03:58:59;;;;;;;23.48;12.00;;;9.80;99.90;;;;;;5054532;28;20055;-90
2022/06/08 04:04:44;;;;;;;22.23;11.75;;;9.90;99.90;;;;;;5015626;28;20044;-90
2022/06/08 04:07:38;;;;;;;22.00;11.90;;;9.90;99.90;;;;;;5053443;28;20048;-91
2022/06/08 04:10:17;;;;;;;16.92;11.20;;;10.10;99.90;;;;;;5021522;28;20056;-91
2022/06/08 04:14:02;;;;;;;24.23;11.95;;;9.90;99.90;;;;;;5037603;28;20047;-90
2022/06/08 04:16:31;;;;;;;24.70;11.80;;;10.10;99.90;;;;;;5011218;28;20118;-91
2022/06/08 04:19:21;;;;;;;19.75;12.82;;;10.10;99.90;;;;;;5019125;28;20412;-91
2022/06/08 04:21:50;;;;;;;22.80;12.68;;;10.20;99.90;;;;;;5018627;28;20139;-90
2022/06/08 04:24:36;;;;;;;24.00;13.13;;;10.40;99.90;;;;;;5019940;28;20084;-90
2022/06/08 04:27:53;;;;;;;24.55;13.55;;;10.30;99.90;;;;;;5019269;28;20068;-91
2022/06/08 04:30:08;;;;;;;27.27;13.25;;;10.60;99.90;;;;;;5023981;28;20140;-91
2022/06/08 04:33:20;;;;;;;21.55;12.43;;;10.50;99.90;;;;;;5017720;28;20055;-89
2022/06/08 04:36:11;;;;;;;;;;;;;;;;;;;;;
2022/06/08 04:38:49;;;;;;;21.20;12.43;;;10.70;99.90;;;;;;5035684;28;20102;-91
2022/06/08 04:41:46;;;;;;;22.08;12.18;;;10.80;99.90;;;;;;5020066;28;20507;-90
2022/06/08 04:44:21;;;;;;;23.67;12.63;;;11.40;99.90;;;;;;5017357;28;20049;-91
2022/06/08 04:47:26;;;;;;;17.70;13.10;;;11.10;99.90;;;;;;5072305;28;20078;-90
2022/06/08 04:49:58;;;;;;;20.83;13.02;;;11.10;99.90;;;;;;5045646;22;20537;-90
2022/06/08 04:52:45;;;;;;;23.45;13.50;;;11.60;99.90;;;;;;5016091;28;20048;-90
2022/06/08 04:55:29;;;;;;;23.15;12.10;;;11.70;99.90;;;;;;5015979;28;20053;-90
2022/06/08 04:58:09;;;;;;;24.58;12.90;;;11.90;99.90;;;;;;5014962;28;20473;-90
2022/06/08 05:00:50;;;;;;;24.83;13.98;;;12.10;99.90;;;;;;5016619;28;20496;-90
2022/06/08 05:03:36;;;;;;;22.27;13.48;;;12.20;99.90;;;;;;5017221;28;20050;-90
2022/06/08 05:06:08;;;;;;;20.30;12.77;;;12.20;99.90;;;;;;5014793;28;20053;-91
2022/06/08 05:08:42;;;;;;;20.23;12.85;;;12.20;99.90;;;;;;5015319;28;20556;-91
2022/06/08 05:11:29;;;;;;;25.48;13.75;;;12.40;99.90;;;;;;5014426;28;20045;-90
2022/06/08 05:14:16;;;;;;;24.48;14.95;;;12.50;99.90;;;;;;5016158;28;20041;-91
2022/06/08 05:16:44;;;;;;;21.52;13.55;;;12.60;99.90;;;;;;5015156;28;20048;-91
2022/06/08 05:19:25;;;;;;;20.42;14.00;;;12.70;99.90;;;;;;5013237;28;20053;-91
2022/06/08 05:22:33;;;;;;;23.13;14.45;;;12.80;99.90;;;;;;5031209;28;20050;-91
2022/06/08 05:25:18;;;;;;;24.38;14.70;;;12.80;99.90;;;;;;5004552;28;20400;-91
2022/06/08 05:28:04;;;;;;;26.40;15.95;;;12.70;99.90;;;;;;4995955;28;20054;-91
2022/06/08 05:33:58;;;;;;;26.60;16.15;;;12.80;99.90;;;;;;4945636;28;20108;-90
2022/06/08 05:36:41;;;;;;;27.70;16.50;;;12.90;99.90;;;;;;4994755;28;20072;-91
2022/06/08 05:39:22;;;;;;;28.20;17.00;;;13.00;99.90;;;;;;4994838;28;20052;-91
2022/06/08 05:42:16;;;;;;;29.63;16.65;;;13.00;99.90;;;;;;4994289;28;20053;-91
2022/06/08 05:44:48;;;;;;;27.80;16.52;;;13.00;99.90;;;;;;4974725;28;20113;-92
2022/06/08 05:50:28;;;;;;;33.38;17.05;;;13.30;99.90;;;;;;5029445;28;20122;-91
2022/06/08 05:53:26;;;;;;;30.80;18.30;;;13.40;99.90;;;;;;5027036;28;20081;-91
2022/06/08 05:56:26;;;;;;;;;;;;;;;;;;;;;
2022/06/08 05:58:55;;;;;;;28.60;17.80;;;13.50;99.90;;;;;;5030566;28;20057;-91
2022/06/08 06:01:33;;;;;;;25.58;16.98;;;13.60;99.90;;;;;;5015881;28;20069;-91
2022/06/08 06:07:33;;;;;;;26.13;17.02;;;13.90;99.90;;;;;;4979459;28;20409;-91
2022/06/08 06:10:06;;;;;;;25.52;17.50;;;14.00;99.90;;;;;;5014040;28;20079;-93
2022/06/08 06:12:53;;;;;;;30.85;18.05;;;14.00;99.90;;;;;;5008462;28;20083;-92
2022/06/08 06:15:44;;;;;;;27.25;17.27;;;14.20;99.90;;;;;;5010255;28;20056;-92
2022/06/08 06:18:45;;;;;;;21.80;15.70;;;14.30;99.90;;;;;;5008117;28;20076;-93
2022/06/08 06:21:44;;;;;;;21.58;15.93;;;14.40;99.90;;;;;;5009627;28;20054;-91
2022/06/08 06:24:21;;;;;;;25.55;16.15;;;14.50;99.90;;;;;;5009629;28;20050;-91
2022/06/08 06:27:05;;;;;;;23.90;16.10;;;14.60;99.90;;;;;;5011986;28;20630;-91
2022/06/08 06:32:52;;;;;;;20.48;14.93;;;14.90;99.90;;;;;;5018272;28;20053;-92
2022/06/08 06:36:29;;;;;;;21.23;14.82;;;15.00;99.90;;;;;;5013452;28;20053;-89
2022/06/08 06:38:52;;;;;;;19.25;14.38;;;15.00;99.90;;;;;;5017508;28;20102;-89
2022/06/08 06:41:29;;;;;;;25.33;14.57;;;15.20;99.90;;;;;;5024378;28;20079;-89
2022/06/08 06:44:12;;;;;;;20.90;15.20;;;15.20;99.90;;;;;;5011347;28;20565;-89
2022/06/08 06:47:24;;;;;;;21.77;13.93;;;15.30;99.90;;;;;;5011092;28;20052;-89
2022/06/08 06:50:32;;;;;;;18.25;12.85;;;15.50;99.90;;;;;;5022050;28;20060;-89
2022/06/08 06:53:09;;;;;;;24.05;14.57;;;15.70;99.90;;;;;;5006337;28;20124;-90
2022/06/08 06:55:55;;;;;;;18.77;12.85;;;15.90;99.90;;;;;;5011492;28;20092;-90
2022/06/08 06:58:48;;;;;;;18.50;12.82;;;16.30;99.90;;;;;;5006443;28;20057;-90
2022/06/08 07:01:37;;;;;;;17.42;11.43;;;16.00;99.90;;;;;;5011002;28;20049;-90
2022/06/08 07:04:23;;;;;;;18.27;12.55;;;16.60;99.90;;;;;;5004361;28;20056;-91
2022/06/08 07:07:29;;;;;;;;;;;;;;;;;;;;;
2022/06/08 07:10:32;;;;;;;16.98;11.70;;;16.80;99.90;;;;;;5011774;28;20111;-91
2022/06/08 07:13:23;;;;;;;16.70;11.70;;;16.90;99.90;;;;;;5023554;28;20996;-90
2022/06/08 07:16:28;;;;;;;17.17;11.75;;;16.90;99.90;;;;;;5026906;28;20473;-91
2022/06/08 07:19:16;;;;;;;15.90;11.40;;;17.00;99.90;;;;;;5010265;28;20053;-91
2022/06/08 07:22:06;;;;;;;19.98;11.13;;;16.90;99.90;;;;;;5011402;28;20033;-91
2022/06/08 07:24:51;;;;;;;19.02;10.95;;;17.10;99.90;;;;;;5028028;28;20041;-91
2022/06/08 07:28:01;;;;;;;18.30;11.10;;;17.10;99.90;;;;;;5010735;28;20049;-92
2022/06/08 07:31:09;;;;;;;16.45;9.82;;;17.20;99.90;;;;;;4990133;28;20584;-91
2022/06/08 07:34:10;;;;;;;12.80;9.43;;;16.90;99.90;;;;;;5008902;28;20049;-91
2022/06/08 07:40:36;;;;;;;14.75;10.25;;;17.60;99.90;;;;;;4983752;28;20049;-91
2022/06/08 07:43:16;;;;;;;11.35;8.68;;;17.90;99.90;;;;;;4964787;28;20096;-92
2022/06/08 07:46:01;;;;;;;13.15;7.85;;;18.20;99.90;;;;;;5011264;28;20049;-92
2022/06/08 07:51:38;;;;;;;12.05;7.28;;;18.00;99.90;;;;;;5030957;28;20077;-92
2022/06/08 07:54:34;;;;;;;12.85;7.30;;;18.00;99.90;;;;;;5017522;28;20048;-91
2022/06/08 07:57:39;;;;;;;10.13;6.55;;;18.00;99.90;;;;;;4976530;28;20562;-91
2022/06/08 08:00:34;;;;;;;11.02;5.85;;;18.10;99.90;;;;;;5012682;28;20057;-90
2022/06/08 08:03:17;;;;;;;10.93;5.82;;;18.10;99.90;;;;;;5031884;28;20064;-91
2022/06/08 08:05:50;;;;;;;10.02;6.53;;;18.10;99.90;;;;;;5033910;22;20493;-91
2022/06/08 08:09:00;;;;;;;10.73;5.38;;;18.10;99.90;;;;;;5031480;22;20091;-91
2022/06/08 08:11:45;;;;;;;8.60;5.65;;;18.10;99.90;;;;;;5011490;28;20037;-91
2022/06/08 08:14:44;;;;;;;10.27;5.25;;;18.20;99.90;;;;;;5000803;28;20042;-90
2022/06/08 08:17:46;;;;;;;9.65;5.78;;;18.50;99.90;;;;;;5016563;28;20049;-90
2022/06/08 08:20:36;;;;;;;7.57;4.38;;;18.70;99.90;;;;;;5001042;28;20045;-95
2022/06/08 08:23:04;;;;;;;7.55;4.03;;;18.70;99.90;;;;;;5019642;23;20110;-91
2022/06/08 08:25:33;;;;;;;7.53;3.97;;;19.20;99.90;;;;;;4976860;28;20473;-91
2022/06/08 08:47:38;;;;;;;5.03;2.97;;;19.60;99.90;;;;;;5011354;28;20496;-92
2022/06/08 08:50:52;;;;;;;12.15;3.53;;;19.60;99.90;;;;;;4978088;28;20081;-91
2022/06/08 08:53:50;;;;;;;5.57;3.10;;;19.60;99.90;;;;;;4963498;28;20046;-92
2022/06/08 08:56:32;;;;;;;8.77;2.90;;;19.50;99.90;;;;;;4974112;28;20046;-91
2022/06/08 08:59:00;;;;;;;5.20;2.42;;;19.80;99.90;;;;;;4977873;28;20321;-91
2022/06/08 09:01:31;;;;;;;6.35;1.73;;;19.80;99.90;;;;;;4978817;28;20100;-92
2022/06/08 09:04:05;;;;;;;5.28;1.60;;;19.80;99.90;;;;;;4994015;28;20049;-92
2022/06/08 09:06:35;;;;;;;3.35;1.30;;;19.90;99.90;;;;;;4978851;28;20418;-91
2022/06/08 09:09:08;;;;;;;3.05;1.10;;;19.80;99.90;;;;;;4973142;28;20053;-92
2022/06/08 09:11:37;;;;;;;6.10;1.20;;;19.70;99.90;;;;;;4978770;28;20390;-91
2022/06/08 09:14:16;;;;;;;2.00;0.70;;;19.80;99.90;;;;;;4981387;28;20050;-92
2022/06/08 09:16:46;;;;;;;3.78;0.80;;;20.10;99.90;;;;;;4978670;28;20133;-91
2022/06/08 09:19:31;;;;;;;2.58;0.77;;;20.30;99.90;;;;;;4980548;28;20046;-92
2022/06/08 09:22:03;;;;;;;3.40;0.80;;;20.20;99.90;;;;;;4977546;28;20141;-91
2022/06/08 09:24:35;;;;;;;3.50;1.50;;;20.20;99.90;;;;;;5001778;23;20107;-82
2022/06/08 09:27:22;;;;;;;4.32;1.42;;;20.20;99.90;;;;;;5025441;28;20386;-82
2022/06/08 09:29:53;;;;;;;3.80;1.50;;;20.20;99.90;;;;;;5012381;28;20045;-83
2022/06/08 09:32:35;;;;;;;4.50;0.95;;;20.20;99.90;;;;;;5019198;28;20047;-82
2022/06/08 09:35:18;;;;;;;4.72;1.08;;;20.30;99.90;;;;;;5011891;28;20084;-82
2022/06/08 09:37:45;;;;;;;5.03;0.90;;;20.20;99.90;;;;;;5008027;28;20045;-83
2022/06/08 09:43:07;;;;;;;6.90;1.10;;;20.40;99.90;;;;;;5005289;28;20085;-83
2022/06/08 09:46:07;;;;;;;6.65;1.40;;;20.50;99.90;;;;;;5014831;28;20049;-82
2022/06/08 09:51:50;;;;;;;4.35;1.02;;;20.50;99.90;;;;;;5004905;28;20485;-82
2022/06/08 09:54:28;;;;;;;3.42;1.40;;;20.60;99.90;;;;;;5020291;28;20049;-82
2022/06/08 09:57:09;;;;;;;4.13;1.17;;;20.60;99.90;;;;;;5010948;28;20037;-83
2022/06/08 09:59:52;;;;;;;4.07;1.27;;;20.50;99.90;;;;;;5022580;28;20122;-82
2022/06/08 10:02:37;;;;;;;6.15;1.48;;;20.70;99.90;;;;;;5001465;28;20136;-83
2022/06/08 10:05:14;;;;;;;9.25;1.58;;;21.00;99.90;;;;;;4998748;28;20049;-83
2022/06/08 10:07:59;;;;;;;5.03;1.83;;;21.10;99.90;;;;;;4999744;28;20046;-84
2022/06/08 10:10:34;;;;;;;3.38;1.27;;;21.10;99.90;;;;;;5009904;28;20051;-82
2022/06/08 10:13:07;;;;;;;6.22;1.70;;;21.40;99.90;;;;;;5007231;28;20049;-82
2022/06/08 10:15:41;;;;;;;8.52;1.67;;;21.60;99.90;;;;;;5007016;28;20124;-82
2022/06/08 10:18:15;;;;;;;5.07;1.48;;;21.80;99.90;;;;;;5010284;28;20049;-82
2022/06/08 10:20:55;;;;;;;6.00;1.58;;;21.90;99.90;;;;;;5020979;28;20042;-83
2022/06/08 10:23:31;;;;;;;7.63;1.45;;;21.90;99.90;;;;;;5007363;28;20093;-83
2022/06/08 10:26:08;;;;;;;3.75;1.45;;;22.00;99.90;;;;;;5002342;28;20119;-83
2022/06/08 10:28:41;;;;;;;7.15;1.70;;;22.10;99.90;;;;;;5000627;28;20409;-83
2022/06/08 10:31:19;;;;;;;3.97;1.77;;;22.20;99.90;;;;;;4995664;28;20481;-87
2022/06/08 10:34:11;;;;;;;8.25;1.95;;;22.20;99.90;;;;;;4985325;28;20038;-83
2022/06/08 10:36:37;;;;;;;5.70;1.80;;;22.30;99.90;;;;;;5011340;28;20045;-84
2022/06/08 10:39:05;;;;;;;7.07;1.95;;;22.10;99.90;;;;;;5004715;28;20128;-84
2022/06/08 10:44:42;;;;;;;7.32;1.90;;;21.80;99.90;;;;;;5016951;28;20797;-84
2022/06/08 10:47:16;;;;;;;4.28;2.00;;;21.60;99.90;;;;;;5013848;28;20136;-83
2022/06/08 10:49:46;;;;;;;5.05;1.80;;;21.40;99.90;;;;;;4978565;28;20499;-84
2022/06/08 10:52:21;;;;;;;5.45;2.25;;;21.30;99.90;;;;;;5000158;28;20042;-84
2022/06/08 10:54:57;;;;;;;4.53;1.90;;;21.10;99.90;;;;;;4993582;28;20037;-83
2022/06/08 10:57:49;;;;;;;3.42;1.90;;;20.90;99.90;;;;;;4991279;28;20045;-83
2022/06/08 11:00:18;;;;;;;6.78;2.22;;;20.90;99.90;;;;;;5007841;28;20041;-83
2022/06/08 11:02:54;;;;;;;8.50;2.13;;;21.00;99.90;;;;;;4991424;28;20136;-83
2022/06/08 11:05:36;;;;;;;3.75;2.00;;;21.10;99.90;;;;;;5003441;28;20409;-83
2022/06/08 11:08:01;;;;;;;6.60;2.60;;;21.20;99.90;;;;;;4992132;28;20100;-83
2022/06/08 11:10:52;;;;;;;6.90;2.67;;;21.40;99.90;;;;;;4991035;28;20038;-84
2022/06/08 11:13:21;;;;;;;6.90;2.55;;;21.50;99.90;;;;;;5008070;28;20149;-83
2022/06/08 11:15:52;;;;;;;4.25;2.53;;;21.50;99.90;;;;;;4991424;28;20167;-83
2022/06/08 11:18:31;;;;;;;4.80;2.42;;;21.50;99.90;;;;;;4971492;28;20038;-83
2022/06/08 11:21:06;;;;;;;6.68;2.63;;;21.40;99.90;;;;;;4986708;28;20046;-83
2022/06/08 11:23:52;;;;;;;5.95;2.35;;;21.20;99.90;;;;;;4971088;28;20089;-83
2022/06/08 11:26:20;;;;;;;7.78;2.20;;;21.10;99.90;;;;;;4987580;28;20088;-83
2022/06/08 11:28:50;;;;;;;7.13;2.08;;;21.00;99.90;;;;;;5004810;28;20086;-83
2022/06/08 11:31:26;;;;;;;9.35;2.08;;;20.90;99.90;;;;;;5014840;28;20064;-83
2022/06/08 11:34:12;;;;;;;5.28;1.98;;;20.70;99.90;;;;;;5001060;28;20053;-83
2022/06/08 11:36:47;;;;;;;4.20;1.77;;;20.60;99.90;;;;;;5010076;28;20050;-84
2022/06/08 11:39:20;;;;;;;5.15;1.90;;;20.50;99.90;;;;;;4955161;28;20592;-84
2022/06/08 11:42:13;;;;;;;4.40;1.50;;;20.50;99.90;;;;;;4972440;28;20141;-83
2022/06/08 11:44:43;;;;;;;5.72;1.65;;;20.40;99.90;;;;;;4976736;28;20044;-84
2022/06/08 11:47:09;;;;;;;4.30;1.30;;;20.30;99.90;;;;;;5001297;28;20046;-83
2022/06/08 11:49:41;;;;;;;5.30;1.65;;;20.30;99.90;;;;;;4991122;28;20501;-84
2022/06/08 11:52:26;;;;;;;5.40;1.70;;;20.30;99.90;;;;;;5007409;28;20802;-84
2022/06/08 11:55:02;;;;;;;6.82;1.85;;;20.40;99.90;;;;;;4995236;28;20050;-84
2022/06/08 11:57:29;;;;;;;7.15;1.85;;;20.40;99.90;;;;;;5005486;28;20042;-85
2022/06/08 11:59:57;;;;;;;16.58;2.05;;;20.30;99.90;;;;;;5019884;28;20099;-85
2022/06/08 12:02:32;;;;;;;5.95;2.60;;;20.20;99.90;;;;;;4998136;28;20045;-91
2022/06/08 12:08:40;;;;;;;5.68;2.88;;;19.90;99.90;;;;;;4995857;28;20041;-92
2022/06/08 12:14:38;;;;;;;7.72;3.13;;;19.60;99.90;;;;;;5003201;28;20056;-92
2022/06/08 12:17:34;;;;;;;7.47;3.05;;;19.60;99.90;;;;;;4984926;28;20054;-92
2022/06/08 12:27:54;;;;;;;6.43;3.95;;;19.30;99.90;;;;;;5072084;23;20048;-91
2022/06/08 12:30:41;;;;;;;6.32;3.42;;;19.20;99.90;;;;;;5031465;28;20044;-92
2022/06/08 12:33:42;;;;;;;;;;;19.10;99.90;;;;;;5029207;28;20053;-92
2022/06/08 12:36:48;;;;;;;10.48;3.70;;;19.10;99.90;;;;;;5013714;28;19936;-92
2022/06/08 12:39:47;;;;;;;9.93;3.80;;;19.10;99.90;;;;;;5015928;28;20488;-92
2022/06/08 12:43:38;;;;;;;8.57;3.78;;;19.10;99.90;;;;;;5013138;28;20119;-92
2022/06/08 12:46:14;;;;;;;;;;;;;;;;;;;;;
2022/06/08 12:49:23;;;;;;;10.05;2.90;;;18.90;99.90;;;;;;5030356;28;20061;-92
2022/06/08 13:21:37;;;;;;;5.15;1.42;;;16.80;99.90;;;;;;4918321;29;20410;-92
2022/06/08 13:24:23;;;;;;;9.32;1.45;;;16.90;99.90;;;;;;4935479;29;20045;-92
2022/06/08 13:28:00;;;;;;;5.45;1.65;;;16.70;99.90;;;;;;4936926;29;20055;-92
2022/06/08 13:30:39;;;;;;;7.80;2.00;;;16.60;99.90;;;;;;4936409;29;20058;-91
2022/06/08 13:36:30;;;;;;;6.75;2.85;;;16.60;99.90;;;;;;4935061;29;20094;-92
2022/06/08 13:39:41;;;;;;;12.40;3.03;;;16.60;99.90;;;;;;4951447;29;20386;-91
2022/06/08 13:42:45;;;;;;;11.65;3.17;;;16.60;99.90;;;;;;4921685;29;20126;-92
2022/06/08 13:46:13;;;;;;;9.68;3.58;;;16.60;99.90;;;;;;4914922;29;20080;-92
2022/06/08 13:48:58;;;;;;;11.55;3.83;;;16.70;99.90;;;;;;4920324;29;20059;-91
2022/06/08 13:52:02;;;;;;;9.20;4.30;;;16.80;99.90;;;;;;4918345;29;20086;-92
2022/06/08 13:54:59;;;;;;;;;;;;;;;;;;;;;
2022/06/08 13:58:15;;;;;;;8.95;4.10;;;16.90;99.90;;;;;;4934511;29;20150;-93
2022/06/08 14:01:46;;;;;;;9.68;4.80;;;17.00;99.90;;;;;;4930430;29;20143;-92
2022/06/08 14:04:24;;;;;;;11.73;5.15;;;17.00;99.90;;;;;;4932930;29;20098;-92
2022/06/08 14:15:13;;;;;;;11.02;5.50;;;17.30;99.90;;;;;;4987964;28;20062;-92
2022/06/08 14:17:54;;;;;;;10.93;5.82;;;17.50;99.90;;;;;;4955559;28;20050;-92
2022/06/08 14:20:46;;;;;;;12.98;5.78;;;17.50;99.90;;;;;;4952717;28;20156;-93
2022/06/08 14:24:03;;;;;;;12.93;5.95;;;17.50;99.90;;;;;;4959516;28;20513;-91
2022/06/08 14:26:58;;;;;;;12.23;7.30;;;17.60;99.90;;;;;;4941515;28;20054;-92
2022/06/08 14:29:48;;;;;;;11.70;6.80;;;17.70;99.90;;;;;;4888588;28;20050;-92
2022/06/08 14:32:46;;;;;;;12.70;7.35;;;17.90;99.90;;;;;;4958280;28;20054;-92
2022/06/08 14:35:45;;;;;;;13.57;9.38;;;18.00;99.90;;;;;;4955810;28;20812;-93
2022/06/08 14:39:16;;;;;;;18.55;9.77;;;18.00;99.90;;;;;;4955224;28;20497;-92
2022/06/08 14:41:44;;;;;;;16.42;11.07;;;18.10;99.90;;;;;;4961484;28;20058;-92
2022/06/08 14:45:06;;;;;;;12.85;10.45;;;18.30;99.90;;;;;;4951138;28;20061;-92
2022/06/08 14:47:53;;;;;;;17.35;11.60;;;18.20;99.90;;;;;;4921977;28;20393;-92
2022/06/08 14:50:38;;;;;;;;;;;;;;;;;;;;;
2022/06/08 14:53:28;;;;;;;16.55;12.48;;;18.30;99.90;;;;;;4970006;28;20061;-92
2022/06/08 14:59:12;;;;;;;16.55;12.57;;;18.40;99.90;;;;;;4966344;28;20053;-91
2022/06/08 15:01:57;;;;;;;19.23;12.35;;;18.40;99.90;;;;;;4954766;28;20069;-91
2022/06/08 15:05:02;;;;;;;15.27;13.48;;;18.50;99.90;;;;;;4953854;28;20074;-92
2022/06/08 15:07:40;;;;;;;21.83;12.88;;;18.30;99.90;;;;;;4957069;28;20128;-92
2022/06/08 15:10:24;;;;;;;13.73;11.65;;;18.20;99.90;;;;;;5020349;23;20044;-92
2022/06/08 15:13:05;;;;;;;16.65;12.95;;;18.10;99.90;;;;;;5031003;28;20496;-93
2022/06/08 15:15:42;;;;;;;15.73;13.13;;;18.10;99.90;;;;;;5015921;28;20373;-92
2022/06/08 15:22:06;;;;;;;14.98;12.10;;;17.70;99.90;;;;;;4954460;28;20518;-93
2022/06/08 15:24:48;;;;;;;13.63;12.23;;;17.80;99.90;;;;;;5004101;28;20056;-92
2022/06/08 15:27:40;;;;;;;14.80;12.13;;;17.70;99.90;;;;;;5035798;22;20093;-93
2022/06/08 15:30:40;;;;;;;15.88;11.38;;;17.80;99.90;;;;;;4934839;28;20054;-94
2022/06/08 15:33:36;;;;;;;17.05;11.60;;;17.70;99.90;;;;;;4973236;28;20076;-92
2022/06/08 15:36:33;;;;;;;18.60;11.40;;;17.70;99.90;;;;;;5007686;28;20490;-93
2022/06/08 15:42:34;;;;;;;13.35;10.57;;;17.90;99.90;;;;;;5005784;28;20090;-93
2022/06/08 15:45:47;;;;;;;14.45;10.75;;;17.80;99.90;;;;;;5025213;28;20084;-94
2022/06/08 15:49:06;;;;;;;17.45;11.65;;;17.90;99.90;;;;;;4981974;28;20084;-94
2022/06/08 15:52:07;;;;;;;14.45;10.27;;;17.90;99.90;;;;;;4991324;23;20049;-93
2022/06/08 15:55:09;;;;;;;21.35;11.15;;;17.90;99.90;;;;;;4957557;28;20326;-94
2022/06/08 15:58:12;;;;;;;19.98;10.75;;;18.00;99.90;;;;;;5019542;28;20408;-93
2022/06/08 16:01:15;;;;;;;12.98;8.32;;;18.00;99.90;;;;;;4994280;28;20057;-94
2022/06/08 16:04:28;;;;;;;13.80;7.75;;;18.00;99.90;;;;;;4996883;28;20053;-94
2022/06/08 16:07:20;;;;;;;10.95;6.53;;;18.10;99.90;;;;;;5006903;28;20138;-93
2022/06/08 16:09:49;;;;;;;10.18;5.60;;;18.00;99.90;;;;;;5037277;28;20495;-94
2022/06/08 16:12:23;;;;;;;11.88;5.72;;;18.00;99.90;;;;;;5035062;28;20060;-94
2022/06/08 16:15:37;;;;;;;10.20;5.65;;;18.10;99.90;;;;;;5017006;28;20126;-94
2022/06/08 16:18:20;;;;;;;10.50;5.50;;;18.00;99.90;;;;;;5012864;28;20149;-94
2022/06/08 16:24:42;;;;;;;6.57;4.03;;;18.00;99.90;;;;;;5044064;28;20453;-94
2022/06/08 16:27:15;;;;;;;9.20;4.35;;;18.00;99.90;;;;;;5034967;28;20439;-93
2022/06/08 16:30:11;;;;;;;7.05;3.97;;;18.10;99.90;;;;;;5035042;28;20510;-93
2022/06/08 16:33:24;;;;;;;9.73;4.35;;;18.00;99.90;;;;;;5030209;28;20091;-94
2022/06/08 16:36:20;;;;;;;7.90;4.28;;;17.90;99.90;;;;;;5050962;28;20057;-93
2022/06/08 16:39:13;;;;;;;7.57;4.03;;;17.80;99.90;;;;;;5051143;28;20156;-93
2022/06/08 16:41:45;;;;;;;8.55;4.47;;;17.80;99.90;;;;;;5028029;28;20522;-94
2022/06/08 16:44:43;;;;;;;8.68;4.70;;;17.70;99.90;;;;;;5033891;28;20052;-93
2022/06/08 16:47:29;;;;;;;9.88;4.28;;;17.70;99.90;;;;;;5009949;28;20060;-93
2022/06/08 16:54:06;;;;;;;11.50;4.72;;;17.70;99.90;;;;;;4973348;28;20517;-93
2022/06/08 16:59:41;;;;;;;13.63;4.90;;;17.60;99.90;;;;;;5050892;28;20056;-92
2022/06/08 17:02:22;;;;;;;12.57;4.70;;;17.40;99.90;;;;;;5033254;28;20060;-94
2022/06/08 17:05:06;;;;;;;11.20;5.05;;;17.30;99.90;;;;;;5033273;28;20106;-94
2022/06/08 17:08:17;;;;;;;10.13;5.15;;;17.30;99.90;;;;;;5033214;28;20144;-93
2022/06/08 17:14:28;;;;;;;14.38;7.07;;;17.10;99.90;;;;;;5050563;28;20128;-94
2022/06/08 17:16:58;;;;;;;12.50;8.20;;;17.10;99.90;;;;;;5034588;28;20060;-94
2022/06/08 17:20:32;;;;;;;16.10;9.20;;;17.10;99.90;;;;;;5036939;28;20079;-94
2022/06/08 17:23:42;;;;;;;11.68;8.80;;;17.00;99.90;;;;;;5003477;28;20132;-94
2022/06/08 17:26:32;;;;;;;12.55;7.85;;;17.10;99.90;;;;;;5027237;28;20052;-94
2022/06/08 17:29:51;;;;;;;17.45;9.63;;;16.90;99.90;;;;;;5034235;28;20101;-95
2022/06/08 17:33:44;;;;;;;;;;;;;;;;;;;;;
2022/06/08 17:40:47;;;;;;;17.67;7.80;;;16.60;99.90;;;;;;5007067;28;20056;-95
2022/06/08 17:44:20;;;;;;;11.90;6.32;;;16.80;99.90;;;;;;5022430;28;20056;-94